Tahitian Princess — ZCDD8 — position and weather

sailwx.info

Track history (hours):
 
Tides and Currents Weather Stations Pressure Air Temp Water Temp Dewpoint Dewpoint Depression Visibility Wind Speed Wind Dir Waves Ship Positions

Tahitian Princess

Operator: P & O Irish Sea Ltd

Last reported at 2020-Jan-28 18:00 UTC. Time now 2020-Jan-28 19:02 UTC.
Position N 53°21' W 006°13'.

Length 167 m; draft 5.7 m.

Type: Ship (hazmat cat A). MMSI: 310362000.

Date/timePositionNaut miles runAvg speedWind from/ knotsBaromVisibWave heightAir tempDewpointWater temp
2020-Jan-28 18:00N 53°21' W 006°13'10815.5
2020-Jan-28 11:01N 53°31' W 003°12'8 1.2
2020-Jan-28 04:30N 53°27' W 003°01'1212.4
2020-Jan-28 03:30N 53°31' W 003°20'9616.6
2020-Jan-27 21:45N 53°21' W 006°00'8 2.1
2020-Jan-27 18:00N 53°21' W 006°13'0 0.0
2020-Jan-27 17:00N 53°21' W 006°13'0 0.0
2020-Jan-27 16:30N 53°21' W 006°13'0 0.0
2020-Jan-27 15:30N 53°21' W 006°13'0 0.0
2020-Jan-27 12:30N 53°21' W 006°13'0 0.0
2020-Jan-27 12:00N 53°21' W 006°13'0 0.0
2020-Jan-27 11:30N 53°21' W 006°13'0 0.0
2020-Jan-27 06:00N 53°21' W 006°13'12 5.9
2020-Jan-27 04:00N 53°23' W 005°54'9016.4
2020-Jan-26 22:31N 53°33' W 003°23'816.0
2020-Jan-26 22:01N 53°32' W 003°09'714.2
2020-Jan-26 21:31N 53°27' W 003°01'1 0.5
2020-Jan-26 20:01N 53°27' W 003°01'0 0.0
2020-Jan-26 18:31N 53°27' W 003°01'0 0.0
2020-Jan-26 18:01N 53°27' W 003°01'0 0.0
2020-Jan-26 15:31N 53°27' W 003°01'0 0.0
2020-Jan-26 14:31N 53°27' W 003°01'0 0.0
2020-Jan-26 14:00N 53°27' W 003°01'0 0.0
2020-Jan-26 12:00N 53°27' W 003°01'0 0.0
2020-Jan-26 11:31N 53°27' W 003°01'0 0.0
2020-Jan-26 11:01N 53°27' W 003°01'0 0.0
2020-Jan-26 10:01N 53°27' W 003°01'0 0.0
2020-Jan-26 09:31N 53°27' W 003°01'0 0.1
2020-Jan-26 05:31N 53°27' W 003°01'10213.6
2020-Jan-25 22:01N 53°23' W 005°52'13 3.6
2020-Jan-25 18:30N 53°21' W 006°13'0 0.0
2020-Jan-25 18:00N 53°21' W 006°13'0 0.2
2020-Jan-25 17:30N 53°21' W 006°13'9516.3
2020-Jan-25 11:41N 53°33' W 003°35'319.1
2020-Jan-25 11:30N 53°33' W 003°29'18 5.1
2020-Jan-25 08:00N 53°27' W 003°01'0 0.0
2020-Jan-25 07:30N 53°27' W 003°01'21 5.3
2020-Jan-25 03:30N 53°32' W 003°36'9413.5
2020-Jan-24 20:30N 53°21' W 006°13'0 0.0
2020-Jan-24 20:00N 53°21' W 006°13'0 0.0
2020-Jan-24 19:30N 53°21' W 006°13'9411.9
2020-Jan-24 11:35N 53°33' W 003°36'1118.9
2020-Jan-24 11:01N 53°32' W 003°18'816.4
2020-Jan-24 10:30N 53°29' W 003°05'3 6.2
2020-Jan-24 10:00N 53°27' W 003°01'0 0.2
2020-Jan-24 07:30N 53°27' W 003°01'0 0.0
2020-Jan-24 07:00N 53°27' W 003°01'11 3.2
2020-Jan-24 03:30N 53°31' W 003°18'1717.3
2020-Jan-24 02:30N 53°32' W 003°48'8017.7
2020-Jan-23 21:58N 53°21' W 006°01'2 0.4
2020-Jan-23 16:30N 53°22' W 005°58'6916.7
2020-Jan-23 12:21N 53°35' W 004°04'2417.8
2020-Jan-23 11:00N 53°33' W 003°24'1515.2
2020-Jan-23 10:00N 53°27' W 003°01'1 0.2
2020-Jan-23 06:00N 53°27' W 003°01'0 0.0
2020-Jan-23 05:30N 53°27' W 003°01'11510.9
2020-Jan-22 19:01N 53°21' W 006°13'9214.3
2020-Jan-22 12:38N 53°33' W 003°41'2415.0
2020-Jan-22 11:00N 53°27' W 003°01'0 0.2
2020-Jan-22 09:00N 53°27' W 003°01'0 0.0
2020-Jan-22 08:30N 53°27' W 003°01'5 1.1
2020-Jan-22 04:01N 53°31' W 003°07'816.2
2020-Jan-22 03:30N 53°31' W 003°20'10314.8
2020-Jan-21 20:30N 53°21' W 006°13'9110.1
2020-Jan-21 11:30N 53°34' W 003°42'1717.4
2020-Jan-21 10:30N 53°31' W 003°13'8 2.7
2020-Jan-21 07:30N 53°27' W 003°01'0 0.0
2020-Jan-21 07:00N 53°27' W 003°01'4 1.5
2020-Jan-21 04:00N 53°31' W 003°06'917.2
2020-Jan-21 03:30N 53°31' W 003°21'918.1
2020-Jan-21 03:00N 53°31' W 003°36'2415.5
2020-Jan-21 01:28N 53°35' W 004°16'716.1
2020-Jan-21 01:00N 53°37' W 004°28'6315.9
2020-Jan-20 21:00N 53°21' W 006°11'1 0.5
2020-Jan-20 18:30N 53°21' W 006°13'0 0.1
2020-Jan-20 16:54N 53°21' W 006°13'0 0.0
2020-Jan-20 15:00N 53°21' W 006°13'0 0.0
2020-Jan-20 13:27N 53°21' W 006°13'0 0.0
2020-Jan-20 11:42N 53°21' W 006°13'0 0.0
2020-Jan-20 11:00N 53°21' W 006°13'0 0.0
2020-Jan-20 09:21N 53°21' W 006°13'0 0.0
2020-Jan-20 08:45N 53°21' W 006°13'0 0.1
2020-Jan-20 07:00N 53°21' W 006°13'0 0.0
2020-Jan-20 05:54N 53°21' W 006°13'0 0.0
2020-Jan-20 05:30N 53°21' W 006°13'2 3.3
2020-Jan-20 05:00N 53°21' W 006°10'2314.9
2020-Jan-20 03:27N 53°27' W 005°33'6315.7
2020-Jan-19 23:26N 53°34' W 003°48'2811.7
2020-Jan-19 21:01N 53°27' W 003°01'0 0.1
2020-Jan-19 19:00N 53°27' W 003°01'0 0.0
2020-Jan-19 18:30N 53°27' W 003°01'0 0.0
2020-Jan-19 16:30N 53°27' W 003°01'0 0.0
2020-Jan-19 13:00N 53°27' W 003°01'0 0.0
2020-Jan-19 11:00N 53°27' W 003°01'0 0.0
2020-Jan-19 10:30N 53°27' W 003°01'0 0.0
2020-Jan-19 10:00N 53°27' W 003°01'0 0.0
2020-Jan-19 08:30N 53°27' W 003°01'0 0.0
2020-Jan-19 06:30N 53°27' W 003°01'5 2.6
2020-Jan-19 04:30N 53°31' W 003°07'1818.0
2020-Jan-19 03:30N 53°31' W 003°37'8615.1
2020-Jan-18 21:48N 53°21' W 006°01'415.2
2020-Jan-18 21:30N 53°21' W 006°08'3 3.1
2020-Jan-18 20:30N 53°21' W 006°13'0 0.0
2020-Jan-18 19:30N 53°21' W 006°13'  
Track history (hours):
 
Tides and Currents Weather Stations Pressure Air Temp Water Temp Dewpoint Dewpoint Depression Visibility Wind Speed Wind Dir Waves Ship Positions

Tahitian Princess

Operator: P & O Irish Sea Ltd

Last reported at 2020-Jan-28 18:00 UTC. Time now 2020-Jan-28 19:02 UTC.
Position N 53°21' W 006°13'.

Length 167 m; draft 5.7 m.

Type: Ship (hazmat cat A). MMSI: 310362000.

Date/timePositionNaut miles runAvg speedWind from/ knotsBaromVisibWave heightAir tempDewpointWater temp
2020-Jan-28 18:00N 53°21' W 006°13'10815.5
2020-Jan-28 11:01N 53°31' W 003°12'8 1.2
2020-Jan-28 04:30N 53°27' W 003°01'1212.4
2020-Jan-28 03:30N 53°31' W 003°20'9616.6
2020-Jan-27 21:45N 53°21' W 006°00'8 2.1
2020-Jan-27 18:00N 53°21' W 006°13'0 0.0
2020-Jan-27 17:00N 53°21' W 006°13'0 0.0
2020-Jan-27 16:30N 53°21' W 006°13'0 0.0
2020-Jan-27 15:30N 53°21' W 006°13'0 0.0
2020-Jan-27 12:30N 53°21' W 006°13'0 0.0
2020-Jan-27 12:00N 53°21' W 006°13'0 0.0
2020-Jan-27 11:30N 53°21' W 006°13'0 0.0
2020-Jan-27 06:00N 53°21' W 006°13'12 5.9
2020-Jan-27 04:00N 53°23' W 005°54'9016.4
2020-Jan-26 22:31N 53°33' W 003°23'816.0
2020-Jan-26 22:01N 53°32' W 003°09'714.2
2020-Jan-26 21:31N 53°27' W 003°01'1 0.5
2020-Jan-26 20:01N 53°27' W 003°01'0 0.0
2020-Jan-26 18:31N 53°27' W 003°01'0 0.0
2020-Jan-26 18:01N 53°27' W 003°01'0 0.0
2020-Jan-26 15:31N 53°27' W 003°01'0 0.0
2020-Jan-26 14:31N 53°27' W 003°01'0 0.0
2020-Jan-26 14:00N 53°27' W 003°01'0 0.0
2020-Jan-26 12:00N 53°27' W 003°01'0 0.0
2020-Jan-26 11:31N 53°27' W 003°01'0 0.0
2020-Jan-26 11:01N 53°27' W 003°01'0 0.0
2020-Jan-26 10:01N 53°27' W 003°01'0 0.0
2020-Jan-26 09:31N 53°27' W 003°01'0 0.1
2020-Jan-26 05:31N 53°27' W 003°01'10213.6
2020-Jan-25 22:01N 53°23' W 005°52'13 3.6
2020-Jan-25 18:30N 53°21' W 006°13'0 0.0
2020-Jan-25 18:00N 53°21' W 006°13'0 0.2
2020-Jan-25 17:30N 53°21' W 006°13'9516.3
2020-Jan-25 11:41N 53°33' W 003°35'319.1
2020-Jan-25 11:30N 53°33' W 003°29'18 5.1
2020-Jan-25 08:00N 53°27' W 003°01'0 0.0
2020-Jan-25 07:30N 53°27' W 003°01'21 5.3
2020-Jan-25 03:30N 53°32' W 003°36'9413.5
2020-Jan-24 20:30N 53°21' W 006°13'0 0.0
2020-Jan-24 20:00N 53°21' W 006°13'0 0.0
2020-Jan-24 19:30N 53°21' W 006°13'9411.9
2020-Jan-24 11:35N 53°33' W 003°36'1118.9
2020-Jan-24 11:01N 53°32' W 003°18'816.4
2020-Jan-24 10:30N 53°29' W 003°05'3 6.2
2020-Jan-24 10:00N 53°27' W 003°01'0 0.2
2020-Jan-24 07:30N 53°27' W 003°01'0 0.0
2020-Jan-24 07:00N 53°27' W 003°01'11 3.2
2020-Jan-24 03:30N 53°31' W 003°18'1717.3
2020-Jan-24 02:30N 53°32' W 003°48'8017.7
2020-Jan-23 21:58N 53°21' W 006°01'2 0.4
2020-Jan-23 16:30N 53°22' W 005°58'6916.7
2020-Jan-23 12:21N 53°35' W 004°04'2417.8
2020-Jan-23 11:00N 53°33' W 003°24'1515.2
2020-Jan-23 10:00N 53°27' W 003°01'1 0.2
2020-Jan-23 06:00N 53°27' W 003°01'0 0.0
2020-Jan-23 05:30N 53°27' W 003°01'11510.9
2020-Jan-22 19:01N 53°21' W 006°13'9214.3
2020-Jan-22 12:38N 53°33' W 003°41'2415.0
2020-Jan-22 11:00N 53°27' W 003°01'0 0.2
2020-Jan-22 09:00N 53°27' W 003°01'0 0.0
2020-Jan-22 08:30N 53°27' W 003°01'5 1.1
2020-Jan-22 04:01N 53°31' W 003°07'816.2
2020-Jan-22 03:30N 53°31' W 003°20'10314.8
2020-Jan-21 20:30N 53°21' W 006°13'9110.1
2020-Jan-21 11:30N 53°34' W 003°42'1717.4
2020-Jan-21 10:30N 53°31' W 003°13'8 2.7
2020-Jan-21 07:30N 53°27' W 003°01'0 0.0
2020-Jan-21 07:00N 53°27' W 003°01'4 1.5
2020-Jan-21 04:00N 53°31' W 003°06'917.2
2020-Jan-21 03:30N 53°31' W 003°21'918.1
2020-Jan-21 03:00N 53°31' W 003°36'2415.5
2020-Jan-21 01:28N 53°35' W 004°16'716.1
2020-Jan-21 01:00N 53°37' W 004°28'6315.9
2020-Jan-20 21:00N 53°21' W 006°11'1 0.5
2020-Jan-20 18:30N 53°21' W 006°13'0 0.1
2020-Jan-20 16:54N 53°21' W 006°13'0 0.0
2020-Jan-20 15:00N 53°21' W 006°13'0 0.0
2020-Jan-20 13:27N 53°21' W 006°13'0 0.0
2020-Jan-20 11:42N 53°21' W 006°13'0 0.0
2020-Jan-20 11:00N 53°21' W 006°13'0 0.0
2020-Jan-20 09:21N 53°21' W 006°13'0 0.0
2020-Jan-20 08:45N 53°21' W 006°13'0 0.1
2020-Jan-20 07:00N 53°21' W 006°13'0 0.0
2020-Jan-20 05:54N 53°21' W 006°13'0 0.0
2020-Jan-20 05:30N 53°21' W 006°13'2 3.3
2020-Jan-20 05:00N 53°21' W 006°10'2314.9
2020-Jan-20 03:27N 53°27' W 005°33'6315.7
2020-Jan-19 23:26N 53°34' W 003°48'2811.7
2020-Jan-19 21:01N 53°27' W 003°01'0 0.1
2020-Jan-19 19:00N 53°27' W 003°01'0 0.0
2020-Jan-19 18:30N 53°27' W 003°01'0 0.0
2020-Jan-19 16:30N 53°27' W 003°01'0 0.0
2020-Jan-19 13:00N 53°27' W 003°01'0 0.0
2020-Jan-19 11:00N 53°27' W 003°01'0 0.0
2020-Jan-19 10:30N 53°27' W 003°01'0 0.0
2020-Jan-19 10:00N 53°27' W 003°01'0 0.0
2020-Jan-19 08:30N 53°27' W 003°01'0 0.0
2020-Jan-19 06:30N 53°27' W 003°01'5 2.6
2020-Jan-19 04:30N 53°31' W 003°07'1818.0
2020-Jan-19 03:30N 53°31' W 003°37'8615.1
2020-Jan-18 21:48N 53°21' W 006°01'415.2
2020-Jan-18 21:30N 53°21' W 006°08'3 3.1
2020-Jan-18 20:30N 53°21' W 006°13'0 0.0
2020-Jan-18 19:30N 53°21' W 006°13'  

Dump ship's entire track history